CYOC

Old Crow Airport

Old Crow, , Canada
METAR CYOC 151900Z VRB02KT 15SM BKN025 BKN060 M17/M19 A2970 RMK SC5SC2 SLP090
Observed Flight Rules
Dec-15 @ 19:00 UTC (32 minutes ago) Marginal Visual Flight Rules
Wind Visibility Clouds
Variable at 2 knots 15 miles
  • Broken at 2,500' AGL
  • Broken at 6,000' AGL
Temperatures Readings
Current -17°C / 1°F
Dewpoint -19°C / -2°F
Humidity 85%
Altimeter 29.7" Hg
Pressure 1009 hPa
Elevation 251
METAR CYOC 151900Z VRB02KT 15SM BKN025 BKN060 M17/M19 A2970 RMK SC5SC2 SLP090
Observed Flight Rules
Dec-15 @ 19:00 UTC
(32 minutes ago)
MVFR
Wind Visibility
Variable at 2 knots 15 miles
Clouds
  • Broken at 2,500' AGL
  • Broken at 6,000' AGL
Temperature Dewpoint
-17°C / 1°F -19°C / -2°F
Humidity Altimeter Pressure
85% 29.7" Hg 1009 hPa